sensor_id;sensor_type;location;lat;lon;timestamp;P1;durP1;ratioP1;P2;durP2;ratioP2
56043;SDS011;41912;51.022;3.664;2024-01-16T00:01:59;13.23;;;3.08;;
56043;SDS011;41912;51.022;3.664;2024-01-16T00:04:25;10.32;;;3.38;;
56043;SDS011;41912;51.022;3.664;2024-01-16T00:06:51;6.25;;;2.58;;
56043;SDS011;41912;51.022;3.664;2024-01-16T00:09:17;18.45;;;2.92;;
56043;SDS011;41912;51.022;3.664;2024-01-16T00:11:43;4.22;;;2.20;;
56043;SDS011;41912;51.022;3.664;2024-01-16T00:14:09;12.65;;;2.92;;
56043;SDS011;41912;51.022;3.664;2024-01-16T00:16:45;11.48;;;3.03;;
56043;SDS011;41912;51.022;3.664;2024-01-16T00:19:12;9.07;;;3.38;;
56043;SDS011;41912;51.022;3.664;2024-01-16T00:21:38;10.73;;;3.40;;
56043;SDS011;41912;51.022;3.664;2024-01-16T00:24:07;6.70;;;2.65;;
56043;SDS011;41912;51.022;3.664;2024-01-16T00:26:33;6.90;;;2.90;;
56043;SDS011;41912;51.022;3.664;2024-01-16T00:28:59;14.32;;;3.35;;
56043;SDS011;41912;51.022;3.664;2024-01-16T00:31:24;9.15;;;2.92;;
56043;SDS011;41912;51.022;3.664;2024-01-16T00:33:50;10.68;;;3.10;;
56043;SDS011;41912;51.022;3.664;2024-01-16T00:36:16;6.85;;;3.42;;
56043;SDS011;41912;51.022;3.664;2024-01-16T00:38:41;13.10;;;3.35;;
56043;SDS011;41912;51.022;3.664;2024-01-16T00:41:13;7.25;;;3.22;;
56043;SDS011;41912;51.022;3.664;2024-01-16T00:43:54;15.70;;;3.70;;
56043;SDS011;41912;51.022;3.664;2024-01-16T00:46:19;14.02;;;4.10;;
56043;SDS011;41912;51.022;3.664;2024-01-16T00:48:45;11.70;;;3.60;;
56043;SDS011;41912;51.022;3.664;2024-01-16T00:51:11;17.63;;;3.35;;
56043;SDS011;41912;51.022;3.664;2024-01-16T00:53:41;10.90;;;3.63;;
56043;SDS011;41912;51.022;3.664;2024-01-16T00:56:07;7.20;;;3.30;;
56043;SDS011;41912;51.022;3.664;2024-01-16T00:58:33;9.93;;;4.53;;
56043;SDS011;41912;51.022;3.664;2024-01-16T01:00:58;13.35;;;4.22;;
56043;SDS011;41912;51.022;3.664;2024-01-16T01:03:24;19.13;;;4.55;;
56043;SDS011;41912;51.022;3.664;2024-01-16T01:05:50;12.05;;;4.93;;
56043;SDS011;41912;51.022;3.664;2024-01-16T01:08:16;17.42;;;6.28;;
56043;SDS011;41912;51.022;3.664;2024-01-16T01:10:41;23.17;;;4.80;;
56043;SDS011;41912;51.022;3.664;2024-01-16T01:13:07;13.05;;;5.28;;
56043;SDS011;41912;51.022;3.664;2024-01-16T01:15:33;12.05;;;5.25;;
56043;SDS011;41912;51.022;3.664;2024-01-16T01:17:58;20.73;;;5.55;;
56043;SDS011;41912;51.022;3.664;2024-01-16T01:20:24;9.52;;;4.68;;
56043;SDS011;41912;51.022;3.664;2024-01-16T01:22:50;11.13;;;4.82;;
56043;SDS011;41912;51.022;3.664;2024-01-16T01:25:16;7.85;;;4.13;;
56043;SDS011;41912;51.022;3.664;2024-01-16T01:27:41;13.38;;;4.63;;
56043;SDS011;41912;51.022;3.664;2024-01-16T01:30:07;10.65;;;3.53;;
56043;SDS011;41912;51.022;3.664;2024-01-16T01:32:36;14.20;;;4.00;;
56043;SDS011;41912;51.022;3.664;2024-01-16T01:35:02;9.77;;;3.22;;
56043;SDS011;41912;51.022;3.664;2024-01-16T01:37:29;8.98;;;3.85;;
56043;SDS011;41912;51.022;3.664;2024-01-16T01:39:54;13.00;;;3.95;;
56043;SDS011;41912;51.022;3.664;2024-01-16T01:42:20;9.63;;;3.25;;
56043;SDS011;41912;51.022;3.664;2024-01-16T01:44:46;12.23;;;4.35;;
56043;SDS011;41912;51.022;3.664;2024-01-16T01:47:11;10.52;;;3.63;;
56043;SDS011;41912;51.022;3.664;2024-01-16T01:49:37;12.32;;;3.25;;
56043;SDS011;41912;51.022;3.664;2024-01-16T01:52:03;4.45;;;2.55;;
56043;SDS011;41912;51.022;3.664;2024-01-16T01:54:31;10.85;;;3.25;;
56043;SDS011;41912;51.022;3.664;2024-01-16T01:57:00;11.35;;;3.63;;
56043;SDS011;41912;51.022;3.664;2024-01-16T01:59:26;12.10;;;3.53;;
56043;SDS011;41912;51.022;3.664;2024-01-16T02:01:54;18.10;;;3.85;;
56043;SDS011;41912;51.022;3.664;2024-01-16T02:04:20;11.23;;;3.90;;
56043;SDS011;41912;51.022;3.664;2024-01-16T02:06:48;16.25;;;3.47;;
56043;SDS011;41912;51.022;3.664;2024-01-16T02:09:14;11.90;;;2.92;;
56043;SDS011;41912;51.022;3.664;2024-01-16T02:11:42;10.45;;;2.97;;
56043;SDS011;41912;51.022;3.664;2024-01-16T02:14:09;10.30;;;3.53;;
56043;SDS011;41912;51.022;3.664;2024-01-16T02:16:36;7.65;;;2.90;;
56043;SDS011;41912;51.022;3.664;2024-01-16T02:19:03;8.95;;;3.28;;
56043;SDS011;41912;51.022;3.664;2024-01-16T02:21:30;8.65;;;3.45;;
56043;SDS011;41912;51.022;3.664;2024-01-16T02:24:06;7.50;;;2.92;;
56043;SDS011;41912;51.022;3.664;2024-01-16T02:26:34;6.00;;;3.00;;
56043;SDS011;41912;51.022;3.664;2024-01-16T02:29:01;10.50;;;3.70;;
56043;SDS011;41912;51.022;3.664;2024-01-16T02:31:28;7.50;;;2.78;;
56043;SDS011;41912;51.022;3.664;2024-01-16T02:33:54;8.73;;;3.17;;
56043;SDS011;41912;51.022;3.664;2024-01-16T02:36:19;7.82;;;2.97;;
56043;SDS011;41912;51.022;3.664;2024-01-16T02:38:48;11.10;;;3.20;;
56043;SDS011;41912;51.022;3.664;2024-01-16T02:41:14;12.90;;;3.10;;
56043;SDS011;41912;51.022;3.664;2024-01-16T02:43:41;9.77;;;3.15;;
56043;SDS011;41912;51.022;3.664;2024-01-16T02:46:06;7.45;;;3.53;;
56043;SDS011;41912;51.022;3.664;2024-01-16T02:48:33;9.40;;;3.35;;
56043;SDS011;41912;51.022;3.664;2024-01-16T02:50:59;14.32;;;3.20;;
56043;SDS011;41912;51.022;3.664;2024-01-16T02:53:25;13.38;;;4.03;;
56043;SDS011;41912;51.022;3.664;2024-01-16T02:55:51;13.13;;;3.78;;
56043;SDS011;41912;51.022;3.664;2024-01-16T02:58:18;11.90;;;4.50;;
56043;SDS011;41912;51.022;3.664;2024-01-16T03:00:43;23.25;;;4.75;;
56043;SDS011;41912;51.022;3.664;2024-01-16T03:03:09;9.48;;;4.43;;
56043;SDS011;41912;51.022;3.664;2024-01-16T03:05:36;10.00;;;4.38;;
56043;SDS011;41912;51.022;3.664;2024-01-16T03:08:01;14.88;;;4.60;;
56043;SDS011;41912;51.022;3.664;2024-01-16T03:10:27;9.30;;;4.03;;
56043;SDS011;41912;51.022;3.664;2024-01-16T03:12:52;12.70;;;4.50;;
56043;SDS011;41912;51.022;3.664;2024-01-16T03:15:18;10.80;;;4.28;;
56043;SDS011;41912;51.022;3.664;2024-01-16T03:17:44;9.23;;;4.03;;
56043;SDS011;41912;51.022;3.664;2024-01-16T03:20:09;14.90;;;5.15;;
56043;SDS011;41912;51.022;3.664;2024-01-16T03:22:36;12.60;;;4.00;;
56043;SDS011;41912;51.022;3.664;2024-01-16T03:25:02;13.93;;;3.75;;
56043;SDS011;41912;51.022;3.664;2024-01-16T03:27:28;10.48;;;3.30;;
56043;SDS011;41912;51.022;3.664;2024-01-16T03:29:53;9.32;;;3.75;;
56043;SDS011;41912;51.022;3.664;2024-01-16T03:32:19;9.45;;;3.63;;
56043;SDS011;41912;51.022;3.664;2024-01-16T03:34:44;14.27;;;4.75;;
56043;SDS011;41912;51.022;3.664;2024-01-16T03:37:10;12.95;;;3.47;;
56043;SDS011;41912;51.022;3.664;2024-01-16T03:39:36;8.30;;;3.40;;
56043;SDS011;41912;51.022;3.664;2024-01-16T03:42:01;13.35;;;3.20;;
56043;SDS011;41912;51.022;3.664;2024-01-16T03:44:27;14.88;;;3.30;;
56043;SDS011;41912;51.022;3.664;2024-01-16T03:46:53;8.23;;;2.63;;
56043;SDS011;41912;51.022;3.664;2024-01-16T03:49:18;6.97;;;3.05;;
56043;SDS011;41912;51.022;3.664;2024-01-16T03:51:44;10.00;;;3.30;;
56043;SDS011;41912;51.022;3.664;2024-01-16T03:54:11;10.15;;;3.13;;
56043;SDS011;41912;51.022;3.664;2024-01-16T03:56:38;11.43;;;3.88;;
56043;SDS011;41912;51.022;3.664;2024-01-16T03:59:04;9.85;;;3.45;;
56043;SDS011;41912;51.022;3.664;2024-01-16T04:01:30;6.03;;;3.20;;
56043;SDS011;41912;51.022;3.664;2024-01-16T04:03:57;12.50;;;3.58;;
56043;SDS011;41912;51.022;3.664;2024-01-16T04:06:22;13.35;;;3.42;;
56043;SDS011;41912;51.022;3.664;2024-01-16T04:08:48;10.35;;;3.13;;
56043;SDS011;41912;51.022;3.664;2024-01-16T04:11:14;8.00;;;2.83;;
56043;SDS011;41912;51.022;3.664;2024-01-16T04:13:40;11.55;;;3.33;;
56043;SDS011;41912;51.022;3.664;2024-01-16T04:16:06;10.65;;;2.90;;
56043;SDS011;41912;51.022;3.664;2024-01-16T04:18:39;7.05;;;3.42;;
56043;SDS011;41912;51.022;3.664;2024-01-16T04:21:05;18.45;;;3.97;;
56043;SDS011;41912;51.022;3.664;2024-01-16T04:23:32;9.15;;;2.80;;
56043;SDS011;41912;51.022;3.664;2024-01-16T04:25:57;7.97;;;2.75;;
56043;SDS011;41912;51.022;3.664;2024-01-16T04:28:23;11.98;;;3.97;;
56043;SDS011;41912;51.022;3.664;2024-01-16T04:30:49;8.27;;;3.17;;
56043;SDS011;41912;51.022;3.664;2024-01-16T04:33:15;14.82;;;3.95;;
56043;SDS011;41912;51.022;3.664;2024-01-16T04:35:41;6.40;;;3.03;;
56043;SDS011;41912;51.022;3.664;2024-01-16T04:38:07;10.48;;;3.42;;
56043;SDS011;41912;51.022;3.664;2024-01-16T04:40:33;9.77;;;2.88;;
56043;SDS011;41912;51.022;3.664;2024-01-16T04:42:59;8.52;;;3.50;;
56043;SDS011;41912;51.022;3.664;2024-01-16T04:45:24;10.30;;;3.40;;
56043;SDS011;41912;51.022;3.664;2024-01-16T04:47:50;10.10;;;2.85;;
56043;SDS011;41912;51.022;3.664;2024-01-16T04:50:16;9.45;;;4.00;;
56043;SDS011;41912;51.022;3.664;2024-01-16T04:52:41;8.60;;;3.40;;
56043;SDS011;41912;51.022;3.664;2024-01-16T04:55:08;11.73;;;4.00;;
56043;SDS011;41912;51.022;3.664;2024-01-16T04:57:34;11.45;;;4.03;;
56043;SDS011;41912;51.022;3.664;2024-01-16T04:59:59;9.65;;;3.55;;
56043;SDS011;41912;51.022;3.664;2024-01-16T05:02:25;14.30;;;3.75;;
56043;SDS011;41912;51.022;3.664;2024-01-16T05:04:51;7.70;;;3.22;;
56043;SDS011;41912;51.022;3.664;2024-01-16T05:07:20;16.20;;;3.78;;
56043;SDS011;41912;51.022;3.664;2024-01-16T05:09:48;8.80;;;3.60;;
56043;SDS011;41912;51.022;3.664;2024-01-16T05:12:14;10.13;;;3.30;;
56043;SDS011;41912;51.022;3.664;2024-01-16T05:14:40;13.07;;;4.22;;
56043;SDS011;41912;51.022;3.664;2024-01-16T05:17:05;9.00;;;3.05;;
56043;SDS011;41912;51.022;3.664;2024-01-16T05:19:31;7.88;;;3.65;;
56043;SDS011;41912;51.022;3.664;2024-01-16T05:21:57;10.60;;;3.33;;
56043;SDS011;41912;51.022;3.664;2024-01-16T05:24:22;9.40;;;3.10;;
56043;SDS011;41912;51.022;3.664;2024-01-16T05:26:48;9.35;;;3.60;;
56043;SDS011;41912;51.022;3.664;2024-01-16T05:29:14;10.60;;;3.60;;
56043;SDS011;41912;51.022;3.664;2024-01-16T05:31:40;8.43;;;3.10;;
56043;SDS011;41912;51.022;3.664;2024-01-16T05:34:07;8.45;;;3.45;;
56043;SDS011;41912;51.022;3.664;2024-01-16T05:36:33;11.15;;;3.75;;
56043;SDS011;41912;51.022;3.664;2024-01-16T05:38:58;9.20;;;3.70;;
56043;SDS011;41912;51.022;3.664;2024-01-16T05:41:24;8.98;;;3.00;;
56043;SDS011;41912;51.022;3.664;2024-01-16T05:43:49;10.98;;;3.60;;
56043;SDS011;41912;51.022;3.664;2024-01-16T05:46:15;8.77;;;3.40;;
56043;SDS011;41912;51.022;3.664;2024-01-16T05:48:41;12.50;;;5.05;;
56043;SDS011;41912;51.022;3.664;2024-01-16T05:51:06;12.68;;;3.10;;
56043;SDS011;41912;51.022;3.664;2024-01-16T05:53:32;8.80;;;3.45;;
56043;SDS011;41912;51.022;3.664;2024-01-16T05:55:57;14.00;;;3.63;;
56043;SDS011;41912;51.022;3.664;2024-01-16T05:58:23;10.27;;;3.88;;
56043;SDS011;41912;51.022;3.664;2024-01-16T06:00:48;6.47;;;3.10;;
56043;SDS011;41912;51.022;3.664;2024-01-16T06:03:14;9.45;;;2.50;;
56043;SDS011;41912;51.022;3.664;2024-01-16T06:05:40;6.93;;;3.17;;
56043;SDS011;41912;51.022;3.664;2024-01-16T06:08:05;12.13;;;3.80;;
56043;SDS011;41912;51.022;3.664;2024-01-16T06:10:31;11.45;;;3.83;;
56043;SDS011;41912;51.022;3.664;2024-01-16T06:12:57;11.35;;;3.80;;
56043;SDS011;41912;51.022;3.664;2024-01-16T06:15:22;9.13;;;4.28;;
56043;SDS011;41912;51.022;3.664;2024-01-16T06:17:48;8.75;;;3.33;;
56043;SDS011;41912;51.022;3.664;2024-01-16T06:20:14;11.85;;;3.40;;
56043;SDS011;41912;51.022;3.664;2024-01-16T06:22:40;8.00;;;2.92;;
56043;SDS011;41912;51.022;3.664;2024-01-16T06:25:05;7.13;;;2.95;;
56043;SDS011;41912;51.022;3.664;2024-01-16T06:27:31;9.27;;;3.17;;
56043;SDS011;41912;51.022;3.664;2024-01-16T06:29:57;9.27;;;3.75;;
56043;SDS011;41912;51.022;3.664;2024-01-16T06:32:23;11.20;;;3.30;;
56043;SDS011;41912;51.022;3.664;2024-01-16T06:34:49;7.88;;;3.13;;
56043;SDS011;41912;51.022;3.664;2024-01-16T06:37:14;6.57;;;3.05;;
56043;SDS011;41912;51.022;3.664;2024-01-16T06:39:40;8.23;;;3.35;;
56043;SDS011;41912;51.022;3.664;2024-01-16T06:42:05;12.50;;;2.97;;
56043;SDS011;41912;51.022;3.664;2024-01-16T06:44:31;15.23;;;4.25;;
56043;SDS011;41912;51.022;3.664;2024-01-16T06:46:57;14.30;;;3.55;;
56043;SDS011;41912;51.022;3.664;2024-01-16T06:49:22;12.95;;;3.80;;
56043;SDS011;41912;51.022;3.664;2024-01-16T06:51:48;10.30;;;3.80;;
56043;SDS011;41912;51.022;3.664;2024-01-16T06:54:14;11.98;;;3.80;;
56043;SDS011;41912;51.022;3.664;2024-01-16T06:56:39;5.78;;;3.42;;
56043;SDS011;41912;51.022;3.664;2024-01-16T06:59:05;10.02;;;3.30;;
56043;SDS011;41912;51.022;3.664;2024-01-16T07:01:31;16.95;;;3.65;;
56043;SDS011;41912;51.022;3.664;2024-01-16T07:03:57;6.82;;;3.03;;
56043;SDS011;41912;51.022;3.664;2024-01-16T07:06:22;11.15;;;3.72;;
56043;SDS011;41912;51.022;3.664;2024-01-16T07:08:48;13.63;;;3.22;;
56043;SDS011;41912;51.022;3.664;2024-01-16T07:11:13;17.20;;;3.67;;
56043;SDS011;41912;51.022;3.664;2024-01-16T07:13:39;10.18;;;3.47;;
56043;SDS011;41912;51.022;3.664;2024-01-16T07:16:09;10.05;;;3.38;;
56043;SDS011;41912;51.022;3.664;2024-01-16T07:18:39;11.82;;;3.33;;
56043;SDS011;41912;51.022;3.664;2024-01-16T07:21:15;10.43;;;3.33;;
56043;SDS011;41912;51.022;3.664;2024-01-16T07:23:41;7.35;;;3.15;;
56043;SDS011;41912;51.022;3.664;2024-01-16T07:26:07;11.15;;;4.05;;
56043;SDS011;41912;51.022;3.664;2024-01-16T07:28:32;8.63;;;3.67;;
56043;SDS011;41912;51.022;3.664;2024-01-16T07:30:58;7.95;;;3.30;;
56043;SDS011;41912;51.022;3.664;2024-01-16T07:33:24;13.85;;;3.63;;
56043;SDS011;41912;51.022;3.664;2024-01-16T07:35:49;13.25;;;3.90;;
56043;SDS011;41912;51.022;3.664;2024-01-16T07:38:15;6.18;;;2.90;;
56043;SDS011;41912;51.022;3.664;2024-01-16T07:40:40;12.63;;;3.90;;
56043;SDS011;41912;51.022;3.664;2024-01-16T07:43:06;12.95;;;3.40;;
56043;SDS011;41912;51.022;3.664;2024-01-16T07:45:32;8.10;;;3.83;;
56043;SDS011;41912;51.022;3.664;2024-01-16T07:47:57;12.93;;;3.38;;
56043;SDS011;41912;51.022;3.664;2024-01-16T07:50:23;9.52;;;3.15;;
56043;SDS011;41912;51.022;3.664;2024-01-16T07:52:49;9.85;;;3.17;;
56043;SDS011;41912;51.022;3.664;2024-01-16T07:55:14;15.60;;;3.72;;
56043;SDS011;41912;51.022;3.664;2024-01-16T07:57:40;12.60;;;4.20;;
56043;SDS011;41912;51.022;3.664;2024-01-16T08:00:06;12.75;;;3.85;;
56043;SDS011;41912;51.022;3.664;2024-01-16T08:02:36;7.13;;;3.38;;
56043;SDS011;41912;51.022;3.664;2024-01-16T08:05:02;8.65;;;3.50;;
56043;SDS011;41912;51.022;3.664;2024-01-16T08:07:28;14.95;;;3.85;;
56043;SDS011;41912;51.022;3.664;2024-01-16T08:09:54;11.20;;;3.55;;
56043;SDS011;41912;51.022;3.664;2024-01-16T08:12:20;11.80;;;3.78;;
56043;SDS011;41912;51.022;3.664;2024-01-16T08:14:45;13.13;;;3.78;;
56043;SDS011;41912;51.022;3.664;2024-01-16T08:17:11;12.90;;;3.65;;
56043;SDS011;41912;51.022;3.664;2024-01-16T08:19:36;11.50;;;4.07;;
56043;SDS011;41912;51.022;3.664;2024-01-16T08:22:02;9.65;;;4.10;;
56043;SDS011;41912;51.022;3.664;2024-01-16T08:24:28;13.05;;;3.85;;
56043;SDS011;41912;51.022;3.664;2024-01-16T08:26:53;14.07;;;4.00;;
56043;SDS011;41912;51.022;3.664;2024-01-16T08:29:22;10.18;;;3.50;;
56043;SDS011;41912;51.022;3.664;2024-01-16T08:31:47;9.52;;;3.50;;
56043;SDS011;41912;51.022;3.664;2024-01-16T08:34:13;15.80;;;4.03;;
56043;SDS011;41912;51.022;3.664;2024-01-16T08:39:04;14.40;;;4.18;;
56043;SDS011;41912;51.022;3.664;2024-01-16T08:41:30;15.15;;;4.72;;
56043;SDS011;41912;51.022;3.664;2024-01-16T08:43:56;13.05;;;5.00;;
56043;SDS011;41912;51.022;3.664;2024-01-16T08:48:47;12.30;;;4.43;;
56043;SDS011;41912;51.022;3.664;2024-01-16T08:51:12;12.68;;;3.95;;
56043;SDS011;41912;51.022;3.664;2024-01-16T08:53:39;10.80;;;3.72;;
56043;SDS011;41912;51.022;3.664;2024-01-16T08:56:04;8.52;;;3.63;;
56043;SDS011;41912;51.022;3.664;2024-01-16T08:58:33;11.52;;;4.13;;
56043;SDS011;41912;51.022;3.664;2024-01-16T09:01:03;9.93;;;3.85;;
56043;SDS011;41912;51.022;3.664;2024-01-16T09:03:33;8.75;;;3.95;;
56043;SDS011;41912;51.022;3.664;2024-01-16T09:05:59;7.50;;;3.80;;
56043;SDS011;41912;51.022;3.664;2024-01-16T09:08:25;12.18;;;3.97;;
56043;SDS011;41912;51.022;3.664;2024-01-16T09:11:03;13.00;;;4.70;;
56043;SDS011;41912;51.022;3.664;2024-01-16T09:13:29;13.30;;;3.90;;
56043;SDS011;41912;51.022;3.664;2024-01-16T09:15:55;11.57;;;4.40;;
56043;SDS011;41912;51.022;3.664;2024-01-16T09:18:20;7.78;;;3.35;;
56043;SDS011;41912;51.022;3.664;2024-01-16T09:20:46;15.35;;;4.00;;
56043;SDS011;41912;51.022;3.664;2024-01-16T09:23:12;9.88;;;4.13;;
56043;SDS011;41912;51.022;3.664;2024-01-16T09:25:38;10.10;;;3.65;;
56043;SDS011;41912;51.022;3.664;2024-01-16T09:28:03;9.75;;;4.40;;
56043;SDS011;41912;51.022;3.664;2024-01-16T09:30:29;8.75;;;3.58;;
56043;SDS011;41912;51.022;3.664;2024-01-16T09:32:54;12.15;;;3.92;;
56043;SDS011;41912;51.022;3.664;2024-01-16T09:35:20;7.75;;;4.10;;
56043;SDS011;41912;51.022;3.664;2024-01-16T09:37:47;14.25;;;4.15;;
56043;SDS011;41912;51.022;3.664;2024-01-16T09:40:12;19.77;;;4.53;;
56043;SDS011;41912;51.022;3.664;2024-01-16T09:42:38;11.43;;;4.32;;
56043;SDS011;41912;51.022;3.664;2024-01-16T09:45:05;11.20;;;4.28;;
56043;SDS011;41912;51.022;3.664;2024-01-16T09:47:33;18.50;;;5.15;;
56043;SDS011;41912;51.022;3.664;2024-01-16T09:49:59;11.82;;;4.10;;
56043;SDS011;41912;51.022;3.664;2024-01-16T09:52:27;11.38;;;3.80;;
56043;SDS011;41912;51.022;3.664;2024-01-16T09:54:53;8.90;;;4.00;;
56043;SDS011;41912;51.022;3.664;2024-01-16T09:57:19;10.63;;;4.25;;
56043;SDS011;41912;51.022;3.664;2024-01-16T09:59:48;15.02;;;4.22;;
56043;SDS011;41912;51.022;3.664;2024-01-16T10:02:13;9.63;;;3.65;;
56043;SDS011;41912;51.022;3.664;2024-01-16T10:04:39;14.10;;;4.15;;
56043;SDS011;41912;51.022;3.664;2024-01-16T10:07:06;14.50;;;4.57;;
56043;SDS011;41912;51.022;3.664;2024-01-16T10:09:35;14.35;;;4.65;;
56043;SDS011;41912;51.022;3.664;2024-01-16T10:12:01;8.88;;;3.58;;
56043;SDS011;41912;51.022;3.664;2024-01-16T10:14:28;13.90;;;4.07;;
56043;SDS011;41912;51.022;3.664;2024-01-16T10:16:54;14.43;;;4.45;;
56043;SDS011;41912;51.022;3.664;2024-01-16T10:19:21;13.05;;;3.67;;
56043;SDS011;41912;51.022;3.664;2024-01-16T10:21:46;11.43;;;3.72;;
56043;SDS011;41912;51.022;3.664;2024-01-16T10:24:12;16.65;;;4.05;;
56043;SDS011;41912;51.022;3.664;2024-01-16T10:26:38;11.60;;;3.55;;
56043;SDS011;41912;51.022;3.664;2024-01-16T10:29:03;11.65;;;3.85;;
56043;SDS011;41912;51.022;3.664;2024-01-16T10:31:34;33.30;;;4.20;;
56043;SDS011;41912;51.022;3.664;2024-01-16T10:34:00;7.82;;;3.65;;
56043;SDS011;41912;51.022;3.664;2024-01-16T10:36:25;10.23;;;3.50;;
56043;SDS011;41912;51.022;3.664;2024-01-16T10:38:51;9.80;;;3.25;;
56043;SDS011;41912;51.022;3.664;2024-01-16T10:41:23;9.85;;;3.90;;
56043;SDS011;41912;51.022;3.664;2024-01-16T10:44:03;10.07;;;3.45;;
56043;SDS011;41912;51.022;3.664;2024-01-16T10:46:32;9.55;;;3.28;;
56043;SDS011;41912;51.022;3.664;2024-01-16T10:49:05;12.88;;;4.03;;
56043;SDS011;41912;51.022;3.664;2024-01-16T10:51:31;8.18;;;3.28;;
56043;SDS011;41912;51.022;3.664;2024-01-16T10:53:58;13.73;;;3.50;;
56043;SDS011;41912;51.022;3.664;2024-01-16T10:56:35;15.40;;;3.22;;
56043;SDS011;41912;51.022;3.664;2024-01-16T11:01:33;8.68;;;3.58;;
56043;SDS011;41912;51.022;3.664;2024-01-16T11:04:00;8.60;;;3.28;;
56043;SDS011;41912;51.022;3.664;2024-01-16T11:06:27;9.35;;;3.75;;
56043;SDS011;41912;51.022;3.664;2024-01-16T11:08:53;9.18;;;2.97;;
56043;SDS011;41912;51.022;3.664;2024-01-16T11:11:19;10.85;;;3.67;;
56043;SDS011;41912;51.022;3.664;2024-01-16T11:13:46;10.35;;;3.38;;
56043;SDS011;41912;51.022;3.664;2024-01-16T11:16:13;10.05;;;4.22;;
56043;SDS011;41912;51.022;3.664;2024-01-16T11:18:39;7.95;;;3.53;;
56043;SDS011;41912;51.022;3.664;2024-01-16T11:21:14;9.35;;;3.38;;
56043;SDS011;41912;51.022;3.664;2024-01-16T11:23:41;8.27;;;3.20;;
56043;SDS011;41912;51.022;3.664;2024-01-16T11:28:58;10.90;;;3.42;;
56043;SDS011;41912;51.022;3.664;2024-01-16T11:31:28;8.70;;;3.80;;
56043;SDS011;41912;51.022;3.664;2024-01-16T11:33:58;12.55;;;3.55;;
56043;SDS011;41912;51.022;3.664;2024-01-16T11:39:19;9.85;;;3.20;;
56043;SDS011;41912;51.022;3.664;2024-01-16T11:41:52;10.60;;;3.55;;
56043;SDS011;41912;51.022;3.664;2024-01-16T11:47:17;11.20;;;3.20;;
56043;SDS011;41912;51.022;3.664;2024-01-16T11:49:44;15.60;;;3.47;;
56043;SDS011;41912;51.022;3.664;2024-01-16T11:52:10;9.43;;;3.30;;
56043;SDS011;41912;51.022;3.664;2024-01-16T11:54:37;9.13;;;3.33;;
56043;SDS011;41912;51.022;3.664;2024-01-16T12:02:00;16.70;;;3.90;;
56043;SDS011;41912;51.022;3.664;2024-01-16T12:04:29;11.77;;;3.42;;
56043;SDS011;41912;51.022;3.664;2024-01-16T12:06:57;13.18;;;3.80;;
56043;SDS011;41912;51.022;3.664;2024-01-16T12:09:25;11.40;;;3.55;;
56043;SDS011;41912;51.022;3.664;2024-01-16T12:11:56;9.70;;;3.88;;
56043;SDS011;41912;51.022;3.664;2024-01-16T12:14:23;7.40;;;3.47;;
56043;SDS011;41912;51.022;3.664;2024-01-16T12:16:49;10.90;;;3.70;;
56043;SDS011;41912;51.022;3.664;2024-01-16T12:19:14;9.52;;;3.88;;
56043;SDS011;41912;51.022;3.664;2024-01-16T12:21:41;8.30;;;3.70;;
56043;SDS011;41912;51.022;3.664;2024-01-16T12:24:09;10.60;;;3.65;;
56043;SDS011;41912;51.022;3.664;2024-01-16T12:26:36;10.45;;;3.53;;
56043;SDS011;41912;51.022;3.664;2024-01-16T12:29:02;11.00;;;3.90;;
56043;SDS011;41912;51.022;3.664;2024-01-16T12:31:28;8.38;;;3.50;;
56043;SDS011;41912;51.022;3.664;2024-01-16T12:34:07;11.40;;;4.10;;
56043;SDS011;41912;51.022;3.664;2024-01-16T12:36:33;12.50;;;3.92;;
56043;SDS011;41912;51.022;3.664;2024-01-16T12:38:59;16.00;;;4.13;;
56043;SDS011;41912;51.022;3.664;2024-01-16T12:41:29;12.32;;;4.00;;
56043;SDS011;41912;51.022;3.664;2024-01-16T12:43:59;10.43;;;3.90;;
56043;SDS011;41912;51.022;3.664;2024-01-16T12:46:25;10.82;;;3.60;;
56043;SDS011;41912;51.022;3.664;2024-01-16T12:48:51;15.35;;;4.43;;
56043;SDS011;41912;51.022;3.664;2024-01-16T12:51:20;10.50;;;3.33;;
56043;SDS011;41912;51.022;3.664;2024-01-16T12:53:48;7.53;;;2.60;;
56043;SDS011;41912;51.022;3.664;2024-01-16T12:56:17;7.70;;;2.22;;
56043;SDS011;41912;51.022;3.664;2024-01-16T12:58:44;4.55;;;2.30;;
56043;SDS011;41912;51.022;3.664;2024-01-16T13:03:48;12.38;;;3.42;;
56043;SDS011;41912;51.022;3.664;2024-01-16T13:06:18;8.02;;;2.50;;
56043;SDS011;41912;51.022;3.664;2024-01-16T13:08:50;7.78;;;2.30;;
56043;SDS011;41912;51.022;3.664;2024-01-16T13:11:28;8.85;;;2.80;;
56043;SDS011;41912;51.022;3.664;2024-01-16T13:14:00;8.50;;;2.70;;
56043;SDS011;41912;51.022;3.664;2024-01-16T13:16:28;9.23;;;2.08;;
56043;SDS011;41912;51.022;3.664;2024-01-16T13:19:00;7.15;;;2.20;;
56043;SDS011;41912;51.022;3.664;2024-01-16T13:21:27;6.32;;;1.85;;
56043;SDS011;41912;51.022;3.664;2024-01-16T13:23:52;7.35;;;2.00;;
56043;SDS011;41912;51.022;3.664;2024-01-16T13:26:18;13.40;;;2.92;;
56043;SDS011;41912;51.022;3.664;2024-01-16T13:28:44;10.82;;;2.53;;
56043;SDS011;41912;51.022;3.664;2024-01-16T13:31:12;5.15;;;2.17;;
56043;SDS011;41912;51.022;3.664;2024-01-16T13:33:37;5.60;;;2.03;;
56043;SDS011;41912;51.022;3.664;2024-01-16T13:36:03;6.63;;;2.83;;
56043;SDS011;41912;51.022;3.664;2024-01-16T13:38:29;14.77;;;2.70;;
56043;SDS011;41912;51.022;3.664;2024-01-16T13:40:55;8.25;;;2.08;;
56043;SDS011;41912;51.022;3.664;2024-01-16T13:43:21;6.35;;;2.45;;
56043;SDS011;41912;51.022;3.664;2024-01-16T13:45:46;6.82;;;2.28;;
56043;SDS011;41912;51.022;3.664;2024-01-16T13:48:16;8.20;;;2.45;;
56043;SDS011;41912;51.022;3.664;2024-01-16T13:50:42;9.15;;;3.00;;
56043;SDS011;41912;51.022;3.664;2024-01-16T13:53:09;9.18;;;2.40;;
56043;SDS011;41912;51.022;3.664;2024-01-16T13:55:37;6.70;;;2.45;;
56043;SDS011;41912;51.022;3.664;2024-01-16T13:58:04;5.47;;;2.38;;
56043;SDS011;41912;51.022;3.664;2024-01-16T14:00:29;5.85;;;2.38;;
56043;SDS011;41912;51.022;3.664;2024-01-16T14:02:55;9.15;;;2.50;;
56043;SDS011;41912;51.022;3.664;2024-01-16T14:05:21;11.27;;;2.72;;
56043;SDS011;41912;51.022;3.664;2024-01-16T14:07:48;7.15;;;1.95;;
56043;SDS011;41912;51.022;3.664;2024-01-16T14:10:18;9.95;;;2.03;;
56043;SDS011;41912;51.022;3.664;2024-01-16T14:12:45;7.75;;;1.88;;
56043;SDS011;41912;51.022;3.664;2024-01-16T14:15:12;8.18;;;1.95;;
56043;SDS011;41912;51.022;3.664;2024-01-16T14:17:44;9.90;;;2.03;;
56043;SDS011;41912;51.022;3.664;2024-01-16T14:20:11;5.65;;;2.17;;
56043;SDS011;41912;51.022;3.664;2024-01-16T14:22:38;6.35;;;2.15;;
56043;SDS011;41912;51.022;3.664;2024-01-16T14:25:05;6.15;;;2.25;;
56043;SDS011;41912;51.022;3.664;2024-01-16T14:30:04;10.73;;;2.72;;
56043;SDS011;41912;51.022;3.664;2024-01-16T14:32:32;9.30;;;2.50;;
56043;SDS011;41912;51.022;3.664;2024-01-16T14:34:58;7.05;;;3.65;;
56043;SDS011;41912;51.022;3.664;2024-01-16T14:37:23;6.13;;;2.25;;
56043;SDS011;41912;51.022;3.664;2024-01-16T14:39:49;8.73;;;2.17;;
56043;SDS011;41912;51.022;3.664;2024-01-16T14:42:14;4.18;;;1.60;;
56043;SDS011;41912;51.022;3.664;2024-01-16T14:44:40;4.10;;;1.98;;
56043;SDS011;41912;51.022;3.664;2024-01-16T14:47:06;7.18;;;2.22;;
56043;SDS011;41912;51.022;3.664;2024-01-16T14:49:33;6.25;;;2.10;;
56043;SDS011;41912;51.022;3.664;2024-01-16T14:51:59;10.38;;;2.08;;
56043;SDS011;41912;51.022;3.664;2024-01-16T14:54:26;2.90;;;2.00;;
56043;SDS011;41912;51.022;3.664;2024-01-16T14:56:51;4.93;;;1.77;;
56043;SDS011;41912;51.022;3.664;2024-01-16T14:59:17;6.45;;;2.13;;
56043;SDS011;41912;51.022;3.664;2024-01-16T15:01:43;6.72;;;2.03;;
56043;SDS011;41912;51.022;3.664;2024-01-16T15:04:09;6.50;;;1.60;;